sensor_id;sensor_type;location;lat;lon;timestamp;P1;durP1;ratioP1;P2;durP2;ratioP2
19887;SDS011;10106;51.332;12.336;2023-04-01T00:00:16;1.67;;;1.57;;
19887;SDS011;10106;51.332;12.336;2023-04-01T00:02:42;3.87;;;1.90;;
19887;SDS011;10106;51.332;12.336;2023-04-01T00:05:08;4.17;;;2.10;;
19887;SDS011;10106;51.332;12.336;2023-04-01T00:07:37;2.93;;;1.80;;
19887;SDS011;10106;51.332;12.336;2023-04-01T00:10:05;2.73;;;2.53;;
19887;SDS011;10106;51.332;12.336;2023-04-01T00:12:35;3.33;;;2.07;;
19887;SDS011;10106;51.332;12.336;2023-04-01T00:15:01;2.83;;;2.00;;
19887;SDS011;10106;51.332;12.336;2023-04-01T00:17:28;1.60;;;1.50;;
19887;SDS011;10106;51.332;12.336;2023-04-01T00:19:54;1.30;;;1.20;;
19887;SDS011;10106;51.332;12.336;2023-04-01T00:22:21;3.87;;;2.10;;
19887;SDS011;10106;51.332;12.336;2023-04-01T00:24:47;2.50;;;1.87;;
19887;SDS011;10106;51.332;12.336;2023-04-01T00:27:13;1.80;;;1.70;;
19887;SDS011;10106;51.332;12.336;2023-04-01T00:29:41;2.27;;;1.77;;
19887;SDS011;10106;51.332;12.336;2023-04-01T00:32:08;1.83;;;1.73;;
19887;SDS011;10106;51.332;12.336;2023-04-01T00:34:33;2.60;;;2.40;;
19887;SDS011;10106;51.332;12.336;2023-04-01T00:36:59;4.47;;;2.40;;
19887;SDS011;10106;51.332;12.336;2023-04-01T00:39:25;2.30;;;1.70;;
19887;SDS011;10106;51.332;12.336;2023-04-01T00:41:53;1.80;;;1.60;;
19887;SDS011;10106;51.332;12.336;2023-04-01T00:44:23;4.83;;;2.83;;
19887;SDS011;10106;51.332;12.336;2023-04-01T00:46:50;2.10;;;1.50;;
19887;SDS011;10106;51.332;12.336;2023-04-01T00:49:18;3.63;;;1.70;;
19887;SDS011;10106;51.332;12.336;2023-04-01T00:51:45;4.70;;;2.03;;
19887;SDS011;10106;51.332;12.336;2023-04-01T00:54:13;4.80;;;1.70;;
19887;SDS011;10106;51.332;12.336;2023-04-01T00:56:51;2.03;;;1.87;;
19887;SDS011;10106;51.332;12.336;2023-04-01T00:59:36;3.87;;;1.60;;
19887;SDS011;10106;51.332;12.336;2023-04-01T01:02:07;4.30;;;2.27;;
19887;SDS011;10106;51.332;12.336;2023-04-01T01:04:35;6.90;;;1.60;;
19887;SDS011;10106;51.332;12.336;2023-04-01T01:07:04;1.20;;;1.20;;
19887;SDS011;10106;51.332;12.336;2023-04-01T01:12:20;1.20;;;1.20;;
19887;SDS011;10106;51.332;12.336;2023-04-01T01:26:35;1.97;;;1.40;;
19887;SDS011;10106;51.332;12.336;2023-04-01T01:34:53;2.40;;;1.40;;
19887;SDS011;10106;51.332;12.336;2023-04-01T01:37:36;1.80;;;1.30;;
19887;SDS011;10106;51.332;12.336;2023-04-01T01:40:05;1.63;;;1.53;;
19887;SDS011;10106;51.332;12.336;2023-04-01T01:42:33;3.77;;;1.87;;
19887;SDS011;10106;51.332;12.336;2023-04-01T01:45:02;1.43;;;1.33;;
19887;SDS011;10106;51.332;12.336;2023-04-01T01:47:30;4.23;;;1.57;;
19887;SDS011;10106;51.332;12.336;2023-04-01T01:49:57;3.50;;;1.80;;
19887;SDS011;10106;51.332;12.336;2023-04-01T01:52:24;1.60;;;1.50;;
19887;SDS011;10106;51.332;12.336;2023-04-01T01:54:56;6.00;;;1.97;;
19887;SDS011;10106;51.332;12.336;2023-04-01T01:57:23;2.73;;;1.60;;
19887;SDS011;10106;51.332;12.336;2023-04-01T01:59:56;2.50;;;1.20;;
19887;SDS011;10106;51.332;12.336;2023-04-01T02:02:26;1.57;;;1.47;;
19887;SDS011;10106;51.332;12.336;2023-04-01T02:04:56;1.60;;;1.50;;
19887;SDS011;10106;51.332;12.336;2023-04-01T02:07:27;10.13;;;1.70;;
19887;SDS011;10106;51.332;12.336;2023-04-01T02:09:57;1.43;;;1.33;;
19887;SDS011;10106;51.332;12.336;2023-04-01T02:12:23;1.60;;;1.50;;
19887;SDS011;10106;51.332;12.336;2023-04-01T02:14:53;1.33;;;1.23;;
19887;SDS011;10106;51.332;12.336;2023-04-01T02:17:26;3.70;;;1.83;;
19887;SDS011;10106;51.332;12.336;2023-04-01T02:20:02;1.87;;;1.30;;
19887;SDS011;10106;51.332;12.336;2023-04-01T02:22:33;1.80;;;1.70;;
19887;SDS011;10106;51.332;12.336;2023-04-01T02:25:10;1.27;;;1.23;;
19887;SDS011;10106;51.332;12.336;2023-04-01T02:27:39;1.60;;;1.50;;
19887;SDS011;10106;51.332;12.336;2023-04-01T02:30:07;1.63;;;1.53;;
19887;SDS011;10106;51.332;12.336;2023-04-01T02:32:33;6.43;;;1.83;;
19887;SDS011;10106;51.332;12.336;2023-04-01T02:35:03;2.93;;;1.27;;
19887;SDS011;10106;51.332;12.336;2023-04-01T02:37:31;3.40;;;1.73;;
19887;SDS011;10106;51.332;12.336;2023-04-01T02:40:01;4.10;;;2.20;;
19887;SDS011;10106;51.332;12.336;2023-04-01T02:42:31;2.73;;;1.50;;
19887;SDS011;10106;51.332;12.336;2023-04-01T02:44:57;1.63;;;1.50;;
19887;SDS011;10106;51.332;12.336;2023-04-01T02:47:23;2.63;;;1.40;;
19887;SDS011;10106;51.332;12.336;2023-04-01T02:49:48;8.23;;;1.83;;
19887;SDS011;10106;51.332;12.336;2023-04-01T02:52:14;1.30;;;1.20;;
19887;SDS011;10106;51.332;12.336;2023-04-01T02:54:40;1.57;;;1.30;;
19887;SDS011;10106;51.332;12.336;2023-04-01T02:57:05;3.57;;;2.10;;
19887;SDS011;10106;51.332;12.336;2023-04-01T02:59:31;5.27;;;1.60;;
19887;SDS011;10106;51.332;12.336;2023-04-01T03:01:57;3.30;;;1.50;;
19887;SDS011;10106;51.332;12.336;2023-04-01T03:04:23;2.50;;;1.90;;
19887;SDS011;10106;51.332;12.336;2023-04-01T03:06:48;3.80;;;1.53;;
19887;SDS011;10106;51.332;12.336;2023-04-01T03:09:14;1.93;;;1.80;;
19887;SDS011;10106;51.332;12.336;2023-04-01T03:11:41;2.80;;;1.60;;
19887;SDS011;10106;51.332;12.336;2023-04-01T03:14:06;1.50;;;1.40;;
19887;SDS011;10106;51.332;12.336;2023-04-01T03:16:32;3.20;;;1.60;;
19887;SDS011;10106;51.332;12.336;2023-04-01T03:18:58;11.03;;;1.70;;
19887;SDS011;10106;51.332;12.336;2023-04-01T03:21:25;2.20;;;1.87;;
19887;SDS011;10106;51.332;12.336;2023-04-01T03:23:51;1.93;;;1.43;;
19887;SDS011;10106;51.332;12.336;2023-04-01T03:26:17;2.87;;;1.80;;
19887;SDS011;10106;51.332;12.336;2023-04-01T03:28:43;1.57;;;1.50;;
19887;SDS011;10106;51.332;12.336;2023-04-01T03:31:09;1.50;;;1.40;;
19887;SDS011;10106;51.332;12.336;2023-04-01T03:33:35;1.63;;;1.53;;
19887;SDS011;10106;51.332;12.336;2023-04-01T03:36:01;4.93;;;2.03;;
19887;SDS011;10106;51.332;12.336;2023-04-01T03:38:31;3.30;;;1.83;;
19887;SDS011;10106;51.332;12.336;2023-04-01T03:41:00;1.57;;;1.47;;
19887;SDS011;10106;51.332;12.336;2023-04-01T03:43:26;6.33;;;1.40;;
19887;SDS011;10106;51.332;12.336;2023-04-01T03:45:52;2.37;;;1.40;;
19887;SDS011;10106;51.332;12.336;2023-04-01T03:48:19;7.83;;;2.10;;
19887;SDS011;10106;51.332;12.336;2023-04-01T03:50:45;5.10;;;1.87;;
19887;SDS011;10106;51.332;12.336;2023-04-01T03:53:11;6.30;;;1.63;;
19887;SDS011;10106;51.332;12.336;2023-04-01T03:55:37;2.07;;;1.90;;
19887;SDS011;10106;51.332;12.336;2023-04-01T03:58:04;4.30;;;1.50;;
19887;SDS011;10106;51.332;12.336;2023-04-01T04:00:31;1.40;;;1.30;;
19887;SDS011;10106;51.332;12.336;2023-04-01T04:02:57;2.87;;;1.43;;
19887;SDS011;10106;51.332;12.336;2023-04-01T04:05:23;1.60;;;1.50;;
19887;SDS011;10106;51.332;12.336;2023-04-01T04:07:50;1.77;;;1.33;;
19887;SDS011;10106;51.332;12.336;2023-04-01T04:10:16;2.20;;;1.63;;
19887;SDS011;10106;51.332;12.336;2023-04-01T04:12:41;2.10;;;1.90;;
19887;SDS011;10106;51.332;12.336;2023-04-01T04:15:07;2.10;;;1.40;;
19887;SDS011;10106;51.332;12.336;2023-04-01T04:17:33;2.77;;;1.97;;
19887;SDS011;10106;51.332;12.336;2023-04-01T04:19:59;2.50;;;1.57;;
19887;SDS011;10106;51.332;12.336;2023-04-01T04:22:25;2.90;;;1.80;;
19887;SDS011;10106;51.332;12.336;2023-04-01T04:24:50;2.30;;;2.10;;
19887;SDS011;10106;51.332;12.336;2023-04-01T04:27:16;3.33;;;1.67;;
19887;SDS011;10106;51.332;12.336;2023-04-01T04:29:42;3.97;;;1.63;;
19887;SDS011;10106;51.332;12.336;2023-04-01T04:32:08;3.43;;;1.33;;
19887;SDS011;10106;51.332;12.336;2023-04-01T04:34:33;2.33;;;1.93;;
19887;SDS011;10106;51.332;12.336;2023-04-01T04:36:59;2.37;;;1.83;;
19887;SDS011;10106;51.332;12.336;2023-04-01T04:39:25;9.70;;;2.00;;
19887;SDS011;10106;51.332;12.336;2023-04-01T04:41:51;3.60;;;1.77;;
19887;SDS011;10106;51.332;12.336;2023-04-01T04:44:16;1.87;;;1.70;;
19887;SDS011;10106;51.332;12.336;2023-04-01T04:46:42;4.00;;;1.60;;
19887;SDS011;10106;51.332;12.336;2023-04-01T04:49:08;5.03;;;1.53;;
19887;SDS011;10106;51.332;12.336;2023-04-01T04:51:34;1.83;;;1.70;;
19887;SDS011;10106;51.332;12.336;2023-04-01T04:54:01;7.83;;;2.13;;
19887;SDS011;10106;51.332;12.336;2023-04-01T04:56:27;4.20;;;1.70;;
19887;SDS011;10106;51.332;12.336;2023-04-01T04:58:53;1.10;;;1.10;;
19887;SDS011;10106;51.332;12.336;2023-04-01T05:06:29;1.53;;;1.50;;
19887;SDS011;10106;51.332;12.336;2023-04-01T05:08:56;1.53;;;1.43;;
19887;SDS011;10106;51.332;12.336;2023-04-01T05:11:22;5.43;;;1.87;;
19887;SDS011;10106;51.332;12.336;2023-04-01T05:13:48;6.90;;;1.93;;
19887;SDS011;10106;51.332;12.336;2023-04-01T05:16:16;3.00;;;2.00;;
19887;SDS011;10106;51.332;12.336;2023-04-01T05:18:43;2.60;;;2.20;;
19887;SDS011;10106;51.332;12.336;2023-04-01T05:21:10;1.70;;;1.60;;
19887;SDS011;10106;51.332;12.336;2023-04-01T05:23:37;1.97;;;1.77;;
19887;SDS011;10106;51.332;12.336;2023-04-01T05:26:12;1.63;;;1.53;;
19887;SDS011;10106;51.332;12.336;2023-04-01T05:28:39;1.83;;;1.73;;
19887;SDS011;10106;51.332;12.336;2023-04-01T05:31:06;3.53;;;1.90;;
19887;SDS011;10106;51.332;12.336;2023-04-01T05:33:32;3.90;;;1.93;;
19887;SDS011;10106;51.332;12.336;2023-04-01T05:36:11;3.70;;;1.70;;
19887;SDS011;10106;51.332;12.336;2023-04-01T05:38:39;2.40;;;1.73;;
19887;SDS011;10106;51.332;12.336;2023-04-01T05:41:05;2.07;;;1.97;;
19887;SDS011;10106;51.332;12.336;2023-04-01T05:43:31;4.30;;;1.67;;
19887;SDS011;10106;51.332;12.336;2023-04-01T05:45:59;4.83;;;1.90;;
19887;SDS011;10106;51.332;12.336;2023-04-01T05:48:25;4.80;;;2.10;;
19887;SDS011;10106;51.332;12.336;2023-04-01T05:50:50;5.27;;;2.70;;
19887;SDS011;10106;51.332;12.336;2023-04-01T05:53:17;2.73;;;1.90;;
19887;SDS011;10106;51.332;12.336;2023-04-01T05:55:42;2.93;;;1.57;;
19887;SDS011;10106;51.332;12.336;2023-04-01T05:58:08;5.40;;;1.80;;
19887;SDS011;10106;51.332;12.336;2023-04-01T06:00:34;1.70;;;1.47;;
19887;SDS011;10106;51.332;12.336;2023-04-01T06:03:00;2.43;;;1.33;;
19887;SDS011;10106;51.332;12.336;2023-04-01T06:05:29;1.70;;;1.50;;
19887;SDS011;10106;51.332;12.336;2023-04-01T06:07:58;1.43;;;1.33;;
19887;SDS011;10106;51.332;12.336;2023-04-01T06:10:53;2.80;;;1.50;;
19887;SDS011;10106;51.332;12.336;2023-04-01T06:13:29;1.63;;;1.53;;
19887;SDS011;10106;51.332;12.336;2023-04-01T06:32:06;4.40;;;1.77;;
19887;SDS011;10106;51.332;12.336;2023-04-01T06:37:50;1.70;;;1.60;;
19887;SDS011;10106;51.332;12.336;2023-04-01T06:43:03;3.13;;;2.27;;
19887;SDS011;10106;51.332;12.336;2023-04-01T06:45:34;18.57;;;2.70;;
19887;SDS011;10106;51.332;12.336;2023-04-01T06:48:18;2.37;;;1.90;;
19887;SDS011;10106;51.332;12.336;2023-04-01T06:51:06;15.00;;;2.20;;
19887;SDS011;10106;51.332;12.336;2023-04-01T06:53:53;2.10;;;1.90;;
19887;SDS011;10106;51.332;12.336;2023-04-01T06:56:39;8.73;;;2.10;;
19887;SDS011;10106;51.332;12.336;2023-04-01T06:59:15;1.30;;;1.20;;
19887;SDS011;10106;51.332;12.336;2023-04-01T07:01:49;1.70;;;1.60;;
19887;SDS011;10106;51.332;12.336;2023-04-01T07:09:58;5.10;;;2.07;;
19887;SDS011;10106;51.332;12.336;2023-04-01T07:12:33;6.50;;;2.40;;
19887;SDS011;10106;51.332;12.336;2023-04-01T07:15:12;7.20;;;2.87;;
19887;SDS011;10106;51.332;12.336;2023-04-01T07:17:43;5.73;;;2.27;;
19887;SDS011;10106;51.332;12.336;2023-04-01T07:22:57;4.50;;;3.10;;
19887;SDS011;10106;51.332;12.336;2023-04-01T07:25:36;3.60;;;2.80;;
19887;SDS011;10106;51.332;12.336;2023-04-01T07:28:12;3.63;;;2.90;;
19887;SDS011;10106;51.332;12.336;2023-04-01T07:37:00;1.40;;;1.30;;
19887;SDS011;10106;51.332;12.336;2023-04-01T07:45:22;1.40;;;1.30;;
19887;SDS011;10106;51.332;12.336;2023-04-01T07:50:27;9.37;;;1.50;;
19887;SDS011;10106;51.332;12.336;2023-04-01T07:58:23;1.63;;;1.33;;
19887;SDS011;10106;51.332;12.336;2023-04-01T08:00:56;1.43;;;1.20;;
19887;SDS011;10106;51.332;12.336;2023-04-01T08:15:10;1.17;;;1.17;;
19887;SDS011;10106;51.332;12.336;2023-04-01T08:22:58;1.97;;;1.23;;
19887;SDS011;10106;51.332;12.336;2023-04-01T08:25:30;1.57;;;1.20;;
19887;SDS011;10106;51.332;12.336;2023-04-01T08:30:41;2.80;;;1.53;;
19887;SDS011;10106;51.332;12.336;2023-04-01T08:33:15;1.87;;;1.50;;
19887;SDS011;10106;51.332;12.336;2023-04-01T09:00:43;5.03;;;2.00;;
19887;SDS011;10106;51.332;12.336;2023-04-01T09:09:54;2.07;;;1.47;;
19887;SDS011;10106;51.332;12.336;2023-04-01T09:15:20;6.80;;;1.87;;
19887;SDS011;10106;51.332;12.336;2023-04-01T09:29:20;3.47;;;1.47;;
19887;SDS011;10106;51.332;12.336;2023-04-01T09:37:54;2.47;;;1.17;;
19887;SDS011;10106;51.332;12.336;2023-04-01T09:43:23;2.40;;;1.30;;
19887;SDS011;10106;51.332;12.336;2023-04-01T09:48:39;1.63;;;1.50;;
19887;SDS011;10106;51.332;12.336;2023-04-01T10:11:56;1.77;;;1.30;;
19887;SDS011;10106;51.332;12.336;2023-04-01T10:51:16;1.40;;;1.30;;
19887;SDS011;10106;51.332;12.336;2023-04-01T10:56:32;1.50;;;1.40;;
19887;SDS011;10106;51.332;12.336;2023-04-01T11:19:07;3.17;;;1.60;;
19887;SDS011;10106;51.332;12.336;2023-04-01T11:30:23;1.80;;;1.30;;
19887;SDS011;10106;51.332;12.336;2023-04-01T11:33:10;0.80;;;0.80;;
19887;SDS011;10106;51.332;12.336;2023-04-01T11:36:14;1.10;;;1.00;;
19887;SDS011;10106;51.332;12.336;2023-04-01T11:41:49;1.80;;;1.00;;
19887;SDS011;10106;51.332;12.336;2023-04-01T11:44:27;1.07;;;0.93;;
19887;SDS011;10106;51.332;12.336;2023-04-01T11:55:31;1.17;;;1.07;;
19887;SDS011;10106;51.332;12.336;2023-04-01T11:58:19;1.53;;;1.20;;
19887;SDS011;10106;51.332;12.336;2023-04-01T12:12:36;2.07;;;0.90;;
19887;SDS011;10106;51.332;12.336;2023-04-01T12:15:28;1.33;;;1.23;;
19887;SDS011;10106;51.332;12.336;2023-04-01T12:18:20;1.30;;;1.20;;
19887;SDS011;10106;51.332;12.336;2023-04-01T12:26:30;1.50;;;1.40;;
19887;SDS011;10106;51.332;12.336;2023-04-01T12:32:01;1.70;;;1.60;;
19887;SDS011;10106;51.332;12.336;2023-04-01T12:34:52;1.87;;;1.60;;
19887;SDS011;10106;51.332;12.336;2023-04-01T12:45:44;2.73;;;2.27;;
19887;SDS011;10106;51.332;12.336;2023-04-01T12:48:37;1.23;;;1.03;;
19887;SDS011;10106;51.332;12.336;2023-04-01T12:51:23;2.20;;;1.50;;
19887;SDS011;10106;51.332;12.336;2023-04-01T12:54:12;0.90;;;0.90;;
19887;SDS011;10106;51.332;12.336;2023-04-01T13:08:49;1.40;;;1.30;;
19887;SDS011;10106;51.332;12.336;2023-04-01T13:11:50;2.10;;;1.37;;
19887;SDS011;10106;51.332;12.336;2023-04-01T13:26:42;1.43;;;1.33;;
19887;SDS011;10106;51.332;12.336;2023-04-01T13:29:31;1.53;;;1.43;;
19887;SDS011;10106;51.332;12.336;2023-04-01T13:37:38;1.20;;;1.10;;
19887;SDS011;10106;51.332;12.336;2023-04-01T13:43:08;1.30;;;1.20;;
19887;SDS011;10106;51.332;12.336;2023-04-01T13:51:51;1.50;;;1.40;;
19887;SDS011;10106;51.332;12.336;2023-04-01T13:54:23;2.30;;;1.23;;
19887;SDS011;10106;51.332;12.336;2023-04-01T14:08:18;1.50;;;1.30;;
19887;SDS011;10106;51.332;12.336;2023-04-01T14:16:33;1.57;;;1.47;;
19887;SDS011;10106;51.332;12.336;2023-04-01T14:24:42;2.07;;;1.53;;
19887;SDS011;10106;51.332;12.336;2023-04-01T14:50:21;1.57;;;1.30;;
19887;SDS011;10106;51.332;12.336;2023-04-01T14:52:56;1.50;;;1.40;;
19887;SDS011;10106;51.332;12.336;2023-04-01T14:55:36;1.67;;;1.40;;
19887;SDS011;10106;51.332;12.336;2023-04-01T14:58:16;5.87;;;3.33;;
19887;SDS011;10106;51.332;12.336;2023-04-01T15:09:23;2.90;;;1.70;;
19887;SDS011;10106;51.332;12.336;2023-04-01T15:31:16;1.23;;;1.13;;
19887;SDS011;10106;51.332;12.336;2023-04-01T15:39:14;1.50;;;1.40;;
19887;SDS011;10106;51.332;12.336;2023-04-01T15:47:34;1.60;;;1.50;;
19887;SDS011;10106;51.332;12.336;2023-04-01T15:53:07;2.07;;;1.77;;
19887;SDS011;10106;51.332;12.336;2023-04-01T15:56:26;2.30;;;2.10;;
19887;SDS011;10106;51.332;12.336;2023-04-01T16:12:41;1.87;;;1.70;;
19887;SDS011;10106;51.332;12.336;2023-04-01T16:18:07;1.30;;;1.20;;
19887;SDS011;10106;51.332;12.336;2023-04-01T16:20:58;1.23;;;1.23;;
19887;SDS011;10106;51.332;12.336;2023-04-01T16:23:48;1.90;;;1.37;;
19887;SDS011;10106;51.332;12.336;2023-04-01T16:26:24;1.27;;;1.17;;
19887;SDS011;10106;51.332;12.336;2023-04-01T16:29:19;1.50;;;1.40;;
19887;SDS011;10106;51.332;12.336;2023-04-01T16:31:51;1.80;;;1.70;;
19887;SDS011;10106;51.332;12.336;2023-04-01T16:34:46;1.90;;;1.80;;
19887;SDS011;10106;51.332;12.336;2023-04-01T16:43:04;2.00;;;1.90;;
19887;SDS011;10106;51.332;12.336;2023-04-01T16:51:22;2.40;;;2.20;;
19887;SDS011;10106;51.332;12.336;2023-04-01T16:56:54;3.70;;;2.30;;
19887;SDS011;10106;51.332;12.336;2023-04-01T16:59:28;1.70;;;1.60;;
19887;SDS011;10106;51.332;12.336;2023-04-01T17:15:27;3.33;;;2.00;;
19887;SDS011;10106;51.332;12.336;2023-04-01T17:42:11;2.77;;;2.00;;
19887;SDS011;10106;51.332;12.336;2023-04-01T17:47:45;2.00;;;1.80;;
19887;SDS011;10106;51.332;12.336;2023-04-01T17:52:55;2.37;;;2.00;;
19887;SDS011;10106;51.332;12.336;2023-04-01T17:55:41;3.97;;;1.90;;
19887;SDS011;10106;51.332;12.336;2023-04-01T18:03:47;3.90;;;2.53;;
19887;SDS011;10106;51.332;12.336;2023-04-01T18:22:09;3.03;;;2.53;;
19887;SDS011;10106;51.332;12.336;2023-04-01T18:27:28;4.40;;;2.60;;
19887;SDS011;10106;51.332;12.336;2023-04-01T18:30:07;3.90;;;2.77;;
19887;SDS011;10106;51.332;12.336;2023-04-01T18:32:54;4.90;;;3.30;;
19887;SDS011;10106;51.332;12.336;2023-04-01T18:38:13;2.73;;;2.53;;
19887;SDS011;10106;51.332;12.336;2023-04-01T18:40:51;8.50;;;3.20;;
19887;SDS011;10106;51.332;12.336;2023-04-01T18:52:16;5.87;;;3.77;;
19887;SDS011;10106;51.332;12.336;2023-04-01T18:57:46;3.63;;;2.60;;
19887;SDS011;10106;51.332;12.336;2023-04-01T19:00:22;5.47;;;2.70;;
19887;SDS011;10106;51.332;12.336;2023-04-01T19:03:07;2.70;;;2.50;;
19887;SDS011;10106;51.332;12.336;2023-04-01T19:05:48;4.33;;;3.00;;
19887;SDS011;10106;51.332;12.336;2023-04-01T19:08:35;4.27;;;3.10;;
19887;SDS011;10106;51.332;12.336;2023-04-01T19:19:38;4.83;;;3.30;;
19887;SDS011;10106;51.332;12.336;2023-04-01T19:32:42;5.20;;;2.87;;
19887;SDS011;10106;51.332;12.336;2023-04-01T19:35:22;4.17;;;3.00;;
19887;SDS011;10106;51.332;12.336;2023-04-01T19:38:37;2.97;;;2.73;;
19887;SDS011;10106;51.332;12.336;2023-04-01T19:43:33;3.17;;;1.80;;
19887;SDS011;10106;51.332;12.336;2023-04-01T19:51:50;2.40;;;2.20;;
19887;SDS011;10106;51.332;12.336;2023-04-01T19:54:51;3.47;;;2.57;;
19887;SDS011;10106;51.332;12.336;2023-04-01T20:00:15;2.90;;;2.40;;
19887;SDS011;10106;51.332;12.336;2023-04-01T20:03:11;7.63;;;2.83;;
19887;SDS011;10106;51.332;12.336;2023-04-01T20:08:43;2.07;;;1.87;;
19887;SDS011;10106;51.332;12.336;2023-04-01T20:11:14;2.20;;;2.00;;
19887;SDS011;10106;51.332;12.336;2023-04-01T20:17:18;5.70;;;3.50;;
19887;SDS011;10106;51.332;12.336;2023-04-01T20:20:03;4.53;;;3.17;;
19887;SDS011;10106;51.332;12.336;2023-04-01T20:26:11;3.33;;;2.00;;
19887;SDS011;10106;51.332;12.336;2023-04-01T20:31:31;3.10;;;2.80;;
19887;SDS011;10106;51.332;12.336;2023-04-01T20:34:19;3.47;;;2.77;;
19887;SDS011;10106;51.332;12.336;2023-04-01T20:37:08;3.97;;;2.77;;
19887;SDS011;10106;51.332;12.336;2023-04-01T20:43:05;3.70;;;2.13;;
19887;SDS011;10106;51.332;12.336;2023-04-01T20:45:10;3.03;;;2.70;;
19887;SDS011;10106;51.332;12.336;2023-04-01T20:51:13;2.63;;;2.40;;
19887;SDS011;10106;51.332;12.336;2023-04-01T20:53:43;3.40;;;2.77;;
19887;SDS011;10106;51.332;12.336;2023-04-01T21:02:46;2.60;;;2.40;;
19887;SDS011;10106;51.332;12.336;2023-04-01T21:13:46;5.10;;;3.63;;
19887;SDS011;10106;51.332;12.336;2023-04-01T21:22:15;2.57;;;2.37;;
19887;SDS011;10106;51.332;12.336;2023-04-01T21:25:03;7.33;;;2.90;;
19887;SDS011;10106;51.332;12.336;2023-04-01T21:27:53;8.23;;;4.97;;
19887;SDS011;10106;51.332;12.336;2023-04-01T22:13:02;5.27;;;2.40;;
19887;SDS011;10106;51.332;12.336;2023-04-01T22:15:47;4.40;;;3.63;;
19887;SDS011;10106;51.332;12.336;2023-04-01T22:18:21;6.18;;;3.90;;
19887;SDS011;10106;51.332;12.336;2023-04-01T22:21:09;3.95;;;3.50;;
19887;SDS011;10106;51.332;12.336;2023-04-01T22:31:51;6.37;;;3.07;;
19887;SDS011;10106;51.332;12.336;2023-04-01T22:34:42;7.70;;;3.10;;
19887;SDS011;10106;51.332;12.336;2023-04-01T22:37:18;2.93;;;2.37;;
19887;SDS011;10106;51.332;12.336;2023-04-01T22:42:44;3.07;;;2.60;;
19887;SDS011;10106;51.332;12.336;2023-04-01T22:51:21;3.50;;;2.97;;
19887;SDS011;10106;51.332;12.336;2023-04-01T22:56:48;7.23;;;2.50;;
19887;SDS011;10106;51.332;12.336;2023-04-01T23:02:17;3.27;;;2.40;;
19887;SDS011;10106;51.332;12.336;2023-04-01T23:04:58;2.97;;;2.70;;
19887;SDS011;10106;51.332;12.336;2023-04-01T23:07:38;3.10;;;2.67;;
19887;SDS011;10106;51.332;12.336;2023-04-01T23:10:26;4.60;;;3.00;;
19887;SDS011;10106;51.332;12.336;2023-04-01T23:13:16;2.63;;;2.13;;
19887;SDS011;10106;51.332;12.336;2023-04-01T23:15:46;4.60;;;1.90;;
19887;SDS011;10106;51.332;12.336;2023-04-01T23:18:15;3.97;;;3.30;;
19887;SDS011;10106;51.332;12.336;2023-04-01T23:26:22;3.60;;;2.90;;
19887;SDS011;10106;51.332;12.336;2023-04-01T23:28:53;2.60;;;2.37;;
19887;SDS011;10106;51.332;12.336;2023-04-01T23:36:40;5.57;;;3.97;;
19887;SDS011;10106;51.332;12.336;2023-04-01T23:39:20;3.37;;;2.73;;
19887;SDS011;10106;51.332;12.336;2023-04-01T23:42:05;2.57;;;2.20;;
19887;SDS011;10106;51.332;12.336;2023-04-01T23:44:38;2.40;;;2.20;;
19887;SDS011;10106;51.332;12.336;2023-04-01T23:47:04;1.97;;;1.77;;
19887;SDS011;10106;51.332;12.336;2023-04-01T23:49:38;8.63;;;4.63;;
19887;SDS011;10106;51.332;12.336;2023-04-01T23:52:16;4.87;;;2.40;;
19887;SDS011;10106;51.332;12.336;2023-04-01T23:54:49;2.87;;;2.53;;
19887;SDS011;10106;51.332;12.336;2023-04-01T23:57:20;2.80;;;2.07;;
